﻿<?xml version="1.0" encoding="UTF-8" standalone="no"?>
<gpx xmlns="http://www.topografix.com/GPX/1/1" xmlns:gpxtpx="http://www.garmin.com/xmlschemas/TrackPointExtension/v1" xmlns:xsi="http://www.w3.org/2001/XMLSchema-instance" creator="Hribi.net" version="1.1" xsi:schemaLocation="http://www.topografix.com/GPX/1/1 http://www.topografix.com/GPX/1/1/gpx.xsd http://www.garmin.com/xmlschemas/TrackPointExtension/v1 http://www.garmin.com/xmlschemas/TrackPointExtensionv1.xsd">
  <metadata>
    <name>GPS sled</name>
    <desc>www.hribi.net</desc>
    <author>
      <name>hribi.net</name>
    </author>
    <link href="http://www.hribi.net">
      <text>Hribi.net</text>
    </link>
  </metadata>
  <trk>
    <trkseg>
      <trkpt lat="46.501693725586" lon="13.7046718597412">
        <ele>920.118896484376</ele>
        <time>2007-01-01T04:10:46Z</time>
      </trkpt>
      <trkpt lat="46.5018224716187" lon="13.7049078941345">
        <ele>927.329101562501</ele>
        <time>2007-01-01T04:11:05Z</time>
      </trkpt>
      <trkpt lat="46.501886844635" lon="13.7051653862">
        <ele>930.212890625</ele>
        <time>2007-01-01T04:11:23Z</time>
      </trkpt>
      <trkpt lat="46.501886844635" lon="13.7054443359375">
        <ele>932.616210937499</ele>
        <time>2007-01-01T04:11:46Z</time>
      </trkpt>
      <trkpt lat="46.5018439292908" lon="13.705530166626">
        <ele>935.980773925781</ele>
        <time>2007-01-01T04:12:23Z</time>
      </trkpt>
      <trkpt lat="46.5018010139466" lon="13.7058520317078">
        <ele>936.941894531249</ele>
        <time>2007-01-01T04:12:42Z</time>
      </trkpt>
      <trkpt lat="46.5018439292908" lon="13.7061309814453">
        <ele>940.306884765625</ele>
        <time>2007-01-01T04:13:00Z</time>
      </trkpt>
      <trkpt lat="46.5019083023072" lon="13.7064099311829">
        <ele>941.748779296876</ele>
        <time>2007-01-01T04:13:17Z</time>
      </trkpt>
      <trkpt lat="46.5019083023072" lon="13.7066888809204">
        <ele>943.190673828124</ele>
        <time>2007-01-01T04:13:33Z</time>
      </trkpt>
      <trkpt lat="46.501886844635" lon="13.706967830658">
        <ele>944.632568359375</ele>
        <time>2007-01-01T04:13:50Z</time>
      </trkpt>
      <trkpt lat="46.5018439292908" lon="13.7072467803955">
        <ele>947.035949707031</ele>
        <time>2007-01-01T04:14:07Z</time>
      </trkpt>
      <trkpt lat="46.5018010139466" lon="13.7075042724609">
        <ele>947.997253417969</ele>
        <time>2007-01-01T04:14:22Z</time>
      </trkpt>
      <trkpt lat="46.5018010139466" lon="13.7077617645264">
        <ele>948.95849609375</ele>
        <time>2007-01-01T04:14:37Z</time>
      </trkpt>
      <trkpt lat="46.5017795562745" lon="13.7080407142639">
        <ele>948.95849609375</ele>
        <time>2007-01-01T04:14:52Z</time>
      </trkpt>
      <trkpt lat="46.5018010139466" lon="13.7082982063294">
        <ele>948.477783203125</ele>
        <time>2007-01-01T04:15:07Z</time>
      </trkpt>
      <trkpt lat="46.5018224716187" lon="13.7085556983948">
        <ele>950.881103515626</ele>
        <time>2007-01-01T04:15:22Z</time>
      </trkpt>
      <trkpt lat="46.501886844635" lon="13.7088131904602">
        <ele>952.8037109375</ele>
        <time>2007-01-01T04:15:37Z</time>
      </trkpt>
      <trkpt lat="46.5019941329956" lon="13.7090277671814">
        <ele>952.8037109375</ele>
        <time>2007-01-01T04:15:51Z</time>
      </trkpt>
      <trkpt lat="46.5021014213562" lon="13.7092638015747">
        <ele>953.76513671875</ele>
        <time>2007-01-01T04:16:06Z</time>
      </trkpt>
      <trkpt lat="46.5021443367005" lon="13.7095212936401">
        <ele>954.245849609375</ele>
        <time>2007-01-01T04:16:21Z</time>
      </trkpt>
      <trkpt lat="46.5021443367005" lon="13.7097787857056">
        <ele>957.129882812501</ele>
        <time>2007-01-01T04:16:37Z</time>
      </trkpt>
      <trkpt lat="46.5021657943726" lon="13.710036277771">
        <ele>960.494384765626</ele>
        <time>2007-01-01T04:16:54Z</time>
      </trkpt>
      <trkpt lat="46.5021657943726" lon="13.7103152275086">
        <ele>958.571716308595</ele>
        <time>2007-01-01T04:17:12Z</time>
      </trkpt>
      <trkpt lat="46.5021872520447" lon="13.710572719574">
        <ele>960.975097656251</ele>
        <time>2007-01-01T04:17:29Z</time>
      </trkpt>
      <trkpt lat="46.502230167389" lon="13.7108302116394">
        <ele>962.416992187499</ele>
        <time>2007-01-01T04:17:46Z</time>
      </trkpt>
      <trkpt lat="46.5022945404053" lon="13.7110877037048">
        <ele>966.742919921874</ele>
        <time>2007-01-01T04:18:10Z</time>
      </trkpt>
      <trkpt lat="46.5023589134217" lon="13.7113451957703">
        <ele>968.184875488282</ele>
        <time>2007-01-01T04:18:27Z</time>
      </trkpt>
      <trkpt lat="46.5024447441102" lon="13.7115597724915">
        <ele>970.588134765626</ele>
        <time>2007-01-01T04:18:42Z</time>
      </trkpt>
      <trkpt lat="46.5025305747986" lon="13.7118172645569">
        <ele>970.107421875001</ele>
        <time>2007-01-01T04:18:58Z</time>
      </trkpt>
      <trkpt lat="46.5026164054871" lon="13.7120318412781">
        <ele>970.588134765626</ele>
        <time>2007-01-01T04:19:13Z</time>
      </trkpt>
      <trkpt lat="46.5027236938477" lon="13.7122464179993">
        <ele>971.068847656251</ele>
        <time>2007-01-01T04:19:28Z</time>
      </trkpt>
      <trkpt lat="46.5028738975525" lon="13.7124180793762">
        <ele>971.068847656251</ele>
        <time>2007-01-01T04:19:42Z</time>
      </trkpt>
      <trkpt lat="46.5030455589295" lon="13.7125039100647">
        <ele>972.030273437502</ele>
        <time>2007-01-01T04:19:57Z</time>
      </trkpt>
      <trkpt lat="46.5031528472901" lon="13.7126755714417">
        <ele>971.068847656251</ele>
        <time>2007-01-01T04:20:14Z</time>
      </trkpt>
      <trkpt lat="46.5030670166016" lon="13.7129330635071">
        <ele>971.068847656251</ele>
        <time>2007-01-01T04:20:33Z</time>
      </trkpt>
      <trkpt lat="46.5030241012574" lon="13.7132334709168">
        <ele>966.742919921874</ele>
        <time>2007-01-01T04:20:51Z</time>
      </trkpt>
      <trkpt lat="46.5030026435852" lon="13.7135124206543">
        <ele>962.897705078124</ele>
        <time>2007-01-01T04:21:07Z</time>
      </trkpt>
      <trkpt lat="46.5030026435852" lon="13.7137913703919">
        <ele>964.8203125</ele>
        <time>2007-01-01T04:21:24Z</time>
      </trkpt>
      <trkpt lat="46.5030241012574" lon="13.7140703201294">
        <ele>967.223632812499</ele>
        <time>2007-01-01T04:21:41Z</time>
      </trkpt>
      <trkpt lat="46.5030455589295" lon="13.714349269867">
        <ele>970.107421875001</ele>
        <time>2007-01-01T04:21:59Z</time>
      </trkpt>
      <trkpt lat="46.5031099319458" lon="13.7146067619324">
        <ele>977.798095703124</ele>
        <time>2007-01-01T04:22:17Z</time>
      </trkpt>
      <trkpt lat="46.5032172203064" lon="13.7148857116699">
        <ele>978.278808593749</ele>
        <time>2007-01-01T04:22:35Z</time>
      </trkpt>
      <trkpt lat="46.5033030509949" lon="13.7151217460632">
        <ele>978.278808593749</ele>
        <time>2007-01-01T04:22:53Z</time>
      </trkpt>
      <trkpt lat="46.503324508667" lon="13.7154221534729">
        <ele>978.278808593749</ele>
        <time>2007-01-01T04:23:08Z</time>
      </trkpt>
      <trkpt lat="46.503324508667" lon="13.7156796455383">
        <ele>975.394775390626</ele>
        <time>2007-01-01T04:23:24Z</time>
      </trkpt>
      <trkpt lat="46.5033030509949" lon="13.7159585952759">
        <ele>974.43359375</ele>
        <time>2007-01-01T04:23:43Z</time>
      </trkpt>
      <trkpt lat="46.5033030509949" lon="13.7162375450134">
        <ele>982.124023437499</ele>
        <time>2007-01-01T04:24:05Z</time>
      </trkpt>
      <trkpt lat="46.5033674240113" lon="13.7164950370789">
        <ele>985.969238281251</ele>
        <time>2007-01-01T04:24:27Z</time>
      </trkpt>
      <trkpt lat="46.503496170044" lon="13.7166452407837">
        <ele>985.969238281251</ele>
        <time>2007-01-01T04:24:42Z</time>
      </trkpt>
      <trkpt lat="46.5035820007325" lon="13.7168598175049">
        <ele>990.29541015625</ele>
        <time>2007-01-01T04:25:03Z</time>
      </trkpt>
      <trkpt lat="46.5037751197815" lon="13.7169885635376">
        <ele>990.775939941406</ele>
        <time>2007-01-01T04:25:30Z</time>
      </trkpt>
      <trkpt lat="46.5039467811585" lon="13.7170743942261">
        <ele>992.217956542969</ele>
        <time>2007-01-01T04:25:57Z</time>
      </trkpt>
      <trkpt lat="46.5040755271912" lon="13.7172889709473">
        <ele>997.505126953124</ele>
        <time>2007-01-01T04:26:17Z</time>
      </trkpt>
      <trkpt lat="46.504225730896" lon="13.7174606323242">
        <ele>999.908447265626</ele>
        <time>2007-01-01T04:26:35Z</time>
      </trkpt>
      <trkpt lat="46.5043330192566" lon="13.7176752090454">
        <ele>1004.71508789063</ele>
        <time>2007-01-01T04:27:01Z</time>
      </trkpt>
      <trkpt lat="46.5045046806336" lon="13.717954158783">
        <ele>1016.7314453125</ele>
        <time>2007-01-01T04:30:16Z</time>
      </trkpt>
      <trkpt lat="46.5046763420105" lon="13.7180399894714">
        <ele>1018.65405273438</ele>
        <time>2007-01-01T04:30:43Z</time>
      </trkpt>
      <trkpt lat="46.5048265457154" lon="13.718147277832">
        <ele>1017.69262695312</ele>
        <time>2007-01-01T04:31:02Z</time>
      </trkpt>
      <trkpt lat="46.504933834076" lon="13.7183618545532">
        <ele>1020.09619140625</ele>
        <time>2007-01-01T04:31:25Z</time>
      </trkpt>
      <trkpt lat="46.5050840377808" lon="13.7185335159302">
        <ele>1020.09619140625</ele>
        <time>2007-01-01T04:31:47Z</time>
      </trkpt>
      <trkpt lat="46.5052342414856" lon="13.7186408042908">
        <ele>1022.01879882812</ele>
        <time>2007-01-01T04:32:07Z</time>
      </trkpt>
      <trkpt lat="46.5054273605347" lon="13.7188124656677">
        <ele>1015.77026367188</ele>
        <time>2007-01-01T04:32:46Z</time>
      </trkpt>
      <trkpt lat="46.5055561065674" lon="13.7190055847168">
        <ele>1019.61547851563</ele>
        <time>2007-01-01T04:33:10Z</time>
      </trkpt>
      <trkpt lat="46.5058135986329" lon="13.7189841270447">
        <ele>1027.30615234375</ele>
        <time>2007-01-01T04:34:08Z</time>
      </trkpt>
      <trkpt lat="46.5059208869935" lon="13.7186622619629">
        <ele>1032.59326171875</ele>
        <time>2007-01-01T04:34:34Z</time>
      </trkpt>
      <trkpt lat="46.5060496330262" lon="13.7184476852417">
        <ele>1033.07373046875</ele>
        <time>2007-01-01T04:34:55Z</time>
      </trkpt>
      <trkpt lat="46.506199836731" lon="13.7182545661926">
        <ele>1036.91918945312</ele>
        <time>2007-01-01T04:35:18Z</time>
      </trkpt>
      <trkpt lat="46.5063071250916" lon="13.7179970741272">
        <ele>1040.28393554688</ele>
        <time>2007-01-01T04:35:52Z</time>
      </trkpt>
      <trkpt lat="46.5063929557801" lon="13.7177395820618">
        <ele>1045.09033203125</ele>
        <time>2007-01-01T04:36:11Z</time>
      </trkpt>
      <trkpt lat="46.506564617157" lon="13.7176108360291">
        <ele>1049.89697265625</ele>
        <time>2007-01-01T04:36:33Z</time>
      </trkpt>
      <trkpt lat="46.506736278534" lon="13.7176752090454">
        <ele>1052.30029296875</ele>
        <time>2007-01-01T04:36:53Z</time>
      </trkpt>
      <trkpt lat="46.5068650245667" lon="13.7178468704224">
        <ele>1052.30029296875</ele>
        <time>2007-01-01T04:37:12Z</time>
      </trkpt>
      <trkpt lat="46.5070366859436" lon="13.7178254127503">
        <ele>1053.74243164062</ele>
        <time>2007-01-01T04:37:26Z</time>
      </trkpt>
      <trkpt lat="46.5071439743042" lon="13.7180829048157">
        <ele>1054.70361328125</ele>
        <time>2007-01-01T04:37:51Z</time>
      </trkpt>
      <trkpt lat="46.5072298049927" lon="13.7182974815369">
        <ele>1060.47143554688</ele>
        <time>2007-01-01T04:38:14Z</time>
      </trkpt>
      <trkpt lat="46.5073800086976" lon="13.7184906005859">
        <ele>1060.9521484375</ele>
        <time>2007-01-01T04:38:33Z</time>
      </trkpt>
      <trkpt lat="46.5075516700745" lon="13.7185335159302">
        <ele>1065.27807617188</ele>
        <time>2007-01-01T04:38:53Z</time>
      </trkpt>
      <trkpt lat="46.5076804161072" lon="13.7183833122254">
        <ele>1070.08471679688</ele>
        <time>2007-01-01T04:39:13Z</time>
      </trkpt>
      <trkpt lat="46.5077877044678" lon="13.7181687355042">
        <ele>1071.04614257813</ele>
        <time>2007-01-01T04:39:32Z</time>
      </trkpt>
      <trkpt lat="46.5079379081727" lon="13.7179756164551">
        <ele>1075.8525390625</ele>
        <time>2007-01-01T04:39:53Z</time>
      </trkpt>
      <trkpt lat="46.5080237388611" lon="13.7176752090454">
        <ele>1075.8525390625</ele>
        <time>2007-01-01T04:40:19Z</time>
      </trkpt>
      <trkpt lat="46.5081310272217" lon="13.7173748016358">
        <ele>1077.29467773437</ele>
        <time>2007-01-01T04:40:40Z</time>
      </trkpt>
      <trkpt lat="46.5082383155823" lon="13.7171387672424">
        <ele>1079.21704101563</ele>
        <time>2007-01-01T04:41:01Z</time>
      </trkpt>
      <trkpt lat="46.5083885192872" lon="13.7169671058655">
        <ele>1081.13989257813</ele>
        <time>2007-01-01T04:41:23Z</time>
      </trkpt>
      <trkpt lat="46.5085601806641" lon="13.7168169021607">
        <ele>1084.50463867188</ele>
        <time>2007-01-01T04:41:49Z</time>
      </trkpt>
      <trkpt lat="46.5087103843689" lon="13.7166023254395">
        <ele>1089.31103515625</ele>
        <time>2007-01-01T04:42:21Z</time>
      </trkpt>
      <trkpt lat="46.5088391304017" lon="13.7163877487183">
        <ele>1090.7529296875</ele>
        <time>2007-01-01T04:42:45Z</time>
      </trkpt>
      <trkpt lat="46.5089678764344" lon="13.7161731719971">
        <ele>1090.2724609375</ele>
        <time>2007-01-01T04:43:14Z</time>
      </trkpt>
      <trkpt lat="46.5091395378113" lon="13.7160444259644">
        <ele>1093.15625</ele>
        <time>2007-01-01T04:43:35Z</time>
      </trkpt>
      <trkpt lat="46.5095596313477" lon="13.7159481048584">
        <ele>1105.65356445313</ele>
        <time>2007-01-01T05:02:18Z</time>
      </trkpt>
      <trkpt lat="46.5121650695801" lon="13.7168383598328">
        <ele>1105.65356445313</ele>
        <time>2007-01-01T05:02:46Z</time>
      </trkpt>
      <trkpt lat="46.5122509002686" lon="13.7172889709473">
        <ele>1116.70874023437</ele>
        <time>2007-01-01T05:03:05Z</time>
      </trkpt>
      <trkpt lat="46.5124654769898" lon="13.7175464630127">
        <ele>1122.4765625</ele>
        <time>2007-01-01T05:03:22Z</time>
      </trkpt>
      <trkpt lat="46.5126156806946" lon="13.7175464630127">
        <ele>1132.08984375</ele>
        <time>2007-01-01T05:03:38Z</time>
      </trkpt>
      <trkpt lat="46.5128087997437" lon="13.7175679206848">
        <ele>1140.26098632813</ele>
        <time>2007-01-01T05:04:03Z</time>
      </trkpt>
      <trkpt lat="46.5130019187928" lon="13.7174820899964">
        <ele>1140.26098632813</ele>
        <time>2007-01-01T05:04:25Z</time>
      </trkpt>
      <trkpt lat="46.5131521224976" lon="13.7173962593079">
        <ele>1142.66430664062</ele>
        <time>2007-01-01T05:04:38Z</time>
      </trkpt>
      <trkpt lat="46.5133023262024" lon="13.7172889709473">
        <ele>1146.98999023438</ele>
        <time>2007-01-01T05:04:54Z</time>
      </trkpt>
      <trkpt lat="46.5135169029236" lon="13.7171602249146">
        <ele>1152.27734375</ele>
        <time>2007-01-01T05:05:11Z</time>
      </trkpt>
      <trkpt lat="46.5137100219727" lon="13.7172675132752">
        <ele>1155.16137695313</ele>
        <time>2007-01-01T05:05:41Z</time>
      </trkpt>
      <trkpt lat="46.5139031410218" lon="13.71741771698">
        <ele>1164.2939453125</ele>
        <time>2007-01-01T05:06:27Z</time>
      </trkpt>
      <trkpt lat="46.5141391754151" lon="13.7173748016358">
        <ele>1164.2939453125</ele>
        <time>2007-01-01T05:06:59Z</time>
      </trkpt>
      <trkpt lat="46.5144395828248" lon="13.7171387672424">
        <ele>1166.21655273437</ele>
        <time>2007-01-01T05:08:03Z</time>
      </trkpt>
      <trkpt lat="46.5146970748902" lon="13.7170100212097">
        <ele>1166.697265625</ele>
        <time>2007-01-01T05:08:58Z</time>
      </trkpt>
      <trkpt lat="46.515018939972" lon="13.7167310714722">
        <ele>1166.21655273437</ele>
        <time>2007-01-01T05:09:54Z</time>
      </trkpt>
      <trkpt lat="46.5152549743653" lon="13.7166237831116">
        <ele>1170.54248046875</ele>
        <time>2007-01-01T05:10:17Z</time>
      </trkpt>
      <trkpt lat="46.5154480934143" lon="13.7166023254395">
        <ele>1176.31030273437</ele>
        <time>2007-01-01T05:10:33Z</time>
      </trkpt>
      <trkpt lat="46.5156626701355" lon="13.7166237831116">
        <ele>1181.59765625</ele>
        <time>2007-01-01T05:11:27Z</time>
      </trkpt>
      <trkpt lat="46.5159721374512" lon="13.7166147232056">
        <ele>1179.19409179687</ele>
        <time>2007-01-01T05:49:09Z</time>
      </trkpt>
      <trkpt lat="46.5160059928894" lon="13.7164092063904">
        <ele>1179.6748046875</ele>
        <time>2007-01-01T05:49:57Z</time>
      </trkpt>
      <trkpt lat="46.5161776542664" lon="13.7163877487183">
        <ele>1180.15576171875</ele>
        <time>2007-01-01T05:50:26Z</time>
      </trkpt>
      <trkpt lat="46.5163278579712" lon="13.7163019180298">
        <ele>1180.15576171875</ele>
        <time>2007-01-01T05:50:45Z</time>
      </trkpt>
      <trkpt lat="46.5165424346924" lon="13.716151714325">
        <ele>1178.71362304688</ele>
        <time>2007-01-01T05:51:09Z</time>
      </trkpt>
      <trkpt lat="46.5166926383973" lon="13.7162375450134">
        <ele>1193.61401367188</ele>
        <time>2007-01-01T05:52:28Z</time>
      </trkpt>
      <trkpt lat="46.5169072151185" lon="13.7162375450134">
        <ele>1195.05590820312</ele>
        <time>2007-01-01T05:52:53Z</time>
      </trkpt>
      <trkpt lat="46.5170788764954" lon="13.7161946296692">
        <ele>1194.5751953125</ele>
        <time>2007-01-01T05:53:18Z</time>
      </trkpt>
      <trkpt lat="46.5172653198242" lon="13.7161855697632">
        <ele>1191.69140625</ele>
        <time>2007-01-01T05:56:48Z</time>
      </trkpt>
      <trkpt lat="46.5181303024292" lon="13.7160444259644">
        <ele>1242.16064453125</ele>
        <time>2007-01-01T06:02:04Z</time>
      </trkpt>
      <trkpt lat="46.5184135437012" lon="13.716160774231">
        <ele>1280.61352539062</ele>
        <time>2007-01-01T06:14:27Z</time>
      </trkpt>
      <trkpt lat="46.518611907959" lon="13.7157783508301">
        <ele>1304.16577148438</ele>
        <time>2007-01-01T06:14:53Z</time>
      </trkpt>
      <trkpt lat="46.5188217163086" lon="13.7157602310181">
        <ele>1304.16577148438</ele>
        <time>2007-01-01T06:15:21Z</time>
      </trkpt>
      <trkpt lat="46.5190315246583" lon="13.715615272522">
        <ele>1301.28173828125</ele>
        <time>2007-01-01T06:18:24Z</time>
      </trkpt>
      <trkpt lat="46.5192675590516" lon="13.7155508995056">
        <ele>1313.29833984375</ele>
        <time>2007-01-01T06:21:55Z</time>
      </trkpt>
      <trkpt lat="46.520076751709" lon="13.7150554656982">
        <ele>1398.37475585937</ele>
        <time>2007-01-01T06:32:34Z</time>
      </trkpt>
      <trkpt lat="46.5205335617066" lon="13.715443611145">
        <ele>1406.54614257813</ele>
        <time>2007-01-01T06:32:58Z</time>
      </trkpt>
      <trkpt lat="46.5206837654114" lon="13.7156367301941">
        <ele>1407.98828125</ele>
        <time>2007-01-01T06:33:24Z</time>
      </trkpt>
      <trkpt lat="46.5208983421326" lon="13.7156796455383">
        <ele>1411.35278320313</ele>
        <time>2007-01-01T06:34:19Z</time>
      </trkpt>
      <trkpt lat="46.5210270881653" lon="13.7157440185547">
        <ele>1412.79467773438</ele>
        <time>2007-01-01T06:34:39Z</time>
      </trkpt>
      <trkpt lat="46.5212631225586" lon="13.7157011032105">
        <ele>1413.275390625</ele>
        <time>2007-01-01T06:35:42Z</time>
      </trkpt>
      <trkpt lat="46.5212631225586" lon="13.7153363227844">
        <ele>1416.63989257813</ele>
        <time>2007-01-01T06:36:21Z</time>
      </trkpt>
      <trkpt lat="46.5213489532471" lon="13.7152075767517">
        <ele>1423.36938476563</ele>
        <time>2007-01-01T06:36:41Z</time>
      </trkpt>
      <trkpt lat="46.5214991569519" lon="13.7152075767517">
        <ele>1426.25305175781</ele>
        <time>2007-01-01T06:37:04Z</time>
      </trkpt>
      <trkpt lat="46.5215420722962" lon="13.7150144577026">
        <ele>1430.5791015625</ele>
        <time>2007-01-01T06:37:31Z</time>
      </trkpt>
      <trkpt lat="46.5216064453125" lon="13.7149930000305">
        <ele>1440.1923828125</ele>
        <time>2007-01-01T06:37:51Z</time>
      </trkpt>
      <trkpt lat="46.5216493606568" lon="13.715078830719">
        <ele>1448.84399414062</ele>
        <time>2007-01-01T06:38:17Z</time>
      </trkpt>
      <trkpt lat="46.5217995643616" lon="13.7152075767517">
        <ele>1450.2861328125</ele>
        <time>2007-01-01T06:38:43Z</time>
      </trkpt>
      <trkpt lat="46.5219068527222" lon="13.7150359153748">
        <ele>1452.20874023438</ele>
        <time>2007-01-01T06:39:20Z</time>
      </trkpt>
      <trkpt lat="46.5219926834107" lon="13.7151646614075">
        <ele>1454.61206054687</ele>
        <time>2007-01-01T06:39:55Z</time>
      </trkpt>
      <trkpt lat="46.5221428871155" lon="13.7150144577026">
        <ele>1452.689453125</ele>
        <time>2007-01-01T06:40:41Z</time>
      </trkpt>
      <trkpt lat="46.5221428871155" lon="13.7144780158997">
        <ele>1477.203125</ele>
        <time>2007-01-01T06:41:31Z</time>
      </trkpt>
      <trkpt lat="46.5223360061646" lon="13.7143707275391">
        <ele>1488.25830078125</ele>
        <time>2007-01-01T06:41:54Z</time>
      </trkpt>
      <trkpt lat="46.5225505828858" lon="13.7142634391785">
        <ele>1494.50659179688</ele>
        <time>2007-01-01T06:42:18Z</time>
      </trkpt>
      <trkpt lat="46.5227437019349" lon="13.7141561508179">
        <ele>1501.716796875</ele>
        <time>2007-01-01T06:42:43Z</time>
      </trkpt>
      <trkpt lat="46.5229368209839" lon="13.7140703201294">
        <ele>1505.08129882812</ele>
        <time>2007-01-01T06:43:07Z</time>
      </trkpt>
      <trkpt lat="46.5230441093445" lon="13.71417760849">
        <ele>1510.84912109375</ele>
        <time>2007-01-01T06:43:40Z</time>
      </trkpt>
    </trkseg>
  </trk>
</gpx>
